createdAt,value
2018-06-05T00:00:05.044Z,7.80
2018-06-05T00:02:33.387Z,6.80
2018-06-05T00:05:02.206Z,6.00
2018-06-05T00:07:31.550Z,6.40
2018-06-05T00:10:00.190Z,6.90
2018-06-05T00:12:28.716Z,6.80
2018-06-05T00:14:57.132Z,6.90
2018-06-05T00:17:25.780Z,6.77
2018-06-05T00:19:54.480Z,7.40
2018-06-05T00:22:23.697Z,6.97
2018-06-05T00:24:52.493Z,7.20
2018-06-05T00:27:21.374Z,7.33
2018-06-05T00:29:49.773Z,6.87
2018-06-05T00:32:18.733Z,6.43
2018-06-05T00:34:47.216Z,6.30
2018-06-05T00:37:15.876Z,6.63
2018-06-05T00:39:44.665Z,6.73
2018-06-05T00:42:13.156Z,6.93
2018-06-05T00:44:41.705Z,7.90
2018-06-05T00:47:10.173Z,6.50
2018-06-05T00:49:38.632Z,6.80
2018-06-05T00:52:07.655Z,7.53
2018-06-05T00:54:35.966Z,7.30
2018-06-05T00:57:04.439Z,6.43
2018-06-05T00:59:32.829Z,8.03
2018-06-05T01:02:01.329Z,7.20
2018-06-05T01:04:29.784Z,7.30
2018-06-05T01:06:58.262Z,7.70
2018-06-05T01:09:26.986Z,6.60
2018-06-05T01:11:55.534Z,7.20
2018-06-05T01:14:24.541Z,7.27
2018-06-05T01:16:53.239Z,8.33
2018-06-05T01:19:21.619Z,6.93
2018-06-05T01:21:50.208Z,7.17
2018-06-05T01:24:18.752Z,8.03
2018-06-05T01:26:47.297Z,7.30
2018-06-05T01:29:15.992Z,6.80
2018-06-05T01:31:44.617Z,6.90
2018-06-05T01:34:13.074Z,7.20
2018-06-05T01:36:41.483Z,7.80
2018-06-05T01:39:10.980Z,7.23
2018-06-05T01:41:39.728Z,7.47
2018-06-05T01:44:09.394Z,6.70
2018-06-05T01:46:37.964Z,7.30
2018-06-05T01:49:06.816Z,7.93
2018-06-05T01:51:35.438Z,7.60
2018-06-05T01:54:03.875Z,6.60
2018-06-05T01:56:32.345Z,8.13
2018-06-05T01:59:01.541Z,7.23
2018-06-05T02:01:30.146Z,6.57
2018-06-05T02:03:58.596Z,7.33
2018-06-05T02:06:27.216Z,7.10
2018-06-05T02:08:55.780Z,7.07
2018-06-05T02:11:24.864Z,8.20
2018-06-05T02:13:53.250Z,7.20
2018-06-05T02:16:21.858Z,8.07
2018-06-05T02:18:50.795Z,7.90
2018-06-05T02:21:19.765Z,8.87
2018-06-05T02:23:48.516Z,8.27
2018-06-05T02:26:17.120Z,7.67
2018-06-05T02:28:45.829Z,8.50
2018-06-05T02:31:14.334Z,7.57
2018-06-05T02:33:42.863Z,8.43
2018-06-05T02:36:11.454Z,8.70
2018-06-05T02:38:40.041Z,7.70
2018-06-05T02:41:08.555Z,8.20
2018-06-05T02:43:37.086Z,7.70
2018-06-05T02:46:05.523Z,8.23
2018-06-05T02:48:34.541Z,8.00
2018-06-05T02:51:03.347Z,8.20
2018-06-05T02:53:31.939Z,7.60
2018-06-05T02:56:00.383Z,8.37
2018-06-05T02:58:28.829Z,8.37
2018-06-05T03:00:57.320Z,7.93
2018-06-05T03:03:25.774Z,7.57
2018-06-05T03:05:54.184Z,7.80
2018-06-05T03:08:22.856Z,8.53
2018-06-05T03:10:52.234Z,8.70
2018-06-05T03:13:20.781Z,7.80
2018-06-05T03:15:49.332Z,8.97
2018-06-05T03:18:17.911Z,8.93
2018-06-05T03:20:46.382Z,7.97
2018-06-05T03:23:14.821Z,7.90
2018-06-05T03:25:43.407Z,7.73
2018-06-05T03:28:11.922Z,8.37
2018-06-05T03:30:40.351Z,8.40
2018-06-05T03:33:08.800Z,9.87
2018-06-05T03:35:37.214Z,7.73
2018-06-05T03:38:05.597Z,8.10
2018-06-05T03:40:34.068Z,8.73
2018-06-05T03:43:02.620Z,8.43
2018-06-05T03:45:31.220Z,7.80
2018-06-05T03:47:59.839Z,8.10
2018-06-05T03:50:28.339Z,7.90
2018-06-05T03:52:56.779Z,8.50
2018-06-05T03:55:25.257Z,8.90
2018-06-05T03:57:53.706Z,8.23
2018-06-05T04:00:22.113Z,8.60
2018-06-05T04:02:50.566Z,9.13
2018-06-05T04:05:19.048Z,7.57
2018-06-05T04:07:47.491Z,8.30
2018-06-05T04:10:15.931Z,8.57
2018-06-05T04:12:44.447Z,7.90
2018-06-05T04:15:12.838Z,8.10
2018-06-05T04:17:41.264Z,8.30
2018-06-05T04:20:09.813Z,8.97
2018-06-05T04:22:38.215Z,7.40
2018-06-05T04:25:06.643Z,8.17
2018-06-05T04:27:35.335Z,8.03
2018-06-05T04:30:04.042Z,8.70
2018-06-05T04:32:32.485Z,7.60
2018-06-05T04:35:00.956Z,8.07
2018-06-05T04:37:29.558Z,8.27
2018-06-05T04:40:01.168Z,8.70
2018-06-05T04:42:30.020Z,9.30
2018-06-05T04:44:58.772Z,8.63
2018-06-05T04:47:27.236Z,8.37
2018-06-05T04:49:55.852Z,9.60
2018-06-05T04:52:24.305Z,9.57
2018-06-05T04:54:52.826Z,9.30
2018-06-05T04:57:21.258Z,9.90
2018-06-05T05:05:08.643Z,9.17
2018-06-05T05:07:38.411Z,8.63
2018-06-05T05:12:41.804Z,9.03
2018-06-05T05:15:10.552Z,9.33
2018-06-05T05:17:39.131Z,9.83
2018-06-05T05:20:07.907Z,9.13
2018-06-05T05:22:38.206Z,10.10
2018-06-05T05:25:25.706Z,10.83
2018-06-05T05:28:01.465Z,10.83
2018-06-05T05:30:37.126Z,10.63
2018-06-05T05:33:08.544Z,9.97
2018-06-05T05:35:36.999Z,11.20
2018-06-05T05:38:06.847Z,11.40
2018-06-05T05:40:35.269Z,12.40
2018-06-05T05:43:10.379Z,11.37
2018-06-05T05:45:39.098Z,13.00
2018-06-05T05:48:07.510Z,11.03
2018-06-05T05:50:36.718Z,10.60
2018-06-05T05:53:05.095Z,11.40
2018-06-05T05:55:37.013Z,11.03
2018-06-05T05:58:06.078Z,12.40
2018-06-05T06:00:34.449Z,12.33
2018-06-05T06:03:02.823Z,11.50
2018-06-05T06:05:31.112Z,12.00
2018-06-05T06:07:59.586Z,12.43
2018-06-05T06:10:28.058Z,12.60
2018-06-05T06:12:56.455Z,12.17
2018-06-05T06:15:25.051Z,11.00
2018-06-05T06:17:53.378Z,12.93
2018-06-05T06:20:21.761Z,12.97
2018-06-05T06:22:50.185Z,11.40
2018-06-05T06:25:18.555Z,10.93
2018-06-05T06:27:47.158Z,11.80
2018-06-05T06:33:01.260Z,11.00
2018-06-05T06:35:29.546Z,11.90
2018-06-05T06:37:57.954Z,9.90
2018-06-05T06:40:26.343Z,10.60
2018-06-05T06:42:54.700Z,11.03
2018-06-05T06:45:23.079Z,10.87
2018-06-05T06:47:51.449Z,10.63
2018-06-05T06:50:19.781Z,11.63
2018-06-05T06:54:17.408Z,10.37
2018-06-05T06:56:45.789Z,10.90
2018-06-05T06:59:14.138Z,11.47
2018-06-05T07:01:42.440Z,10.97
2018-06-05T07:04:10.809Z,10.07
2018-06-05T07:06:39.090Z,9.37
2018-06-05T07:09:07.950Z,9.20
2018-06-05T07:11:36.342Z,9.10
2018-06-05T07:14:05.449Z,9.63
2018-06-05T07:16:33.738Z,9.93
2018-06-05T07:19:02.048Z,10.30
2018-06-05T07:21:30.421Z,8.33
2018-06-05T07:23:58.914Z,10.03
2018-06-05T07:26:27.163Z,10.37
2018-06-05T07:28:55.480Z,9.30
2018-06-05T07:31:24.270Z,9.27
2018-06-05T07:33:52.628Z,9.60
2018-06-05T07:36:20.972Z,9.00
2018-06-05T07:38:49.304Z,8.60
2018-06-05T07:41:17.643Z,8.73
2018-06-05T07:43:45.967Z,9.47
2018-06-05T07:46:14.257Z,9.17
2018-06-05T07:48:42.585Z,9.40
2018-06-05T07:51:10.908Z,8.77
2018-06-05T07:53:39.269Z,8.37
2018-06-05T07:56:07.615Z,8.70
2018-06-05T07:58:36.003Z,8.40
2018-06-05T08:01:04.380Z,8.10
2018-06-05T08:03:32.759Z,9.30
2018-06-05T08:06:01.054Z,8.40
2018-06-05T08:08:29.387Z,8.60
2018-06-05T08:10:57.787Z,9.57
2018-06-05T08:13:26.115Z,8.03
2018-06-05T08:15:54.408Z,8.57
2018-06-05T08:18:22.753Z,8.37
2018-06-05T08:20:51.178Z,8.47
2018-06-05T08:23:19.533Z,8.73
2018-06-05T08:25:47.835Z,8.63
2018-06-05T08:28:16.168Z,8.20
2018-06-05T08:30:44.592Z,8.10
2018-06-05T08:33:12.889Z,8.23
2018-06-05T08:35:41.185Z,7.93
2018-06-05T08:38:09.547Z,10.97
2018-06-05T08:40:37.962Z,8.70
2018-06-05T08:43:06.242Z,9.80
2018-06-05T08:45:34.548Z,9.47
2018-06-05T08:48:02.944Z,8.73
2018-06-05T08:50:31.349Z,8.30
2018-06-05T08:52:59.687Z,8.00
2018-06-05T08:55:28.033Z,7.80
2018-06-05T08:57:56.327Z,8.50
2018-06-05T09:00:24.636Z,8.13
2018-06-05T09:02:52.936Z,7.30
2018-06-05T09:05:21.406Z,7.30
2018-06-05T09:07:49.718Z,7.93
2018-06-05T09:10:18.069Z,7.30
2018-06-05T09:12:46.392Z,8.10
2018-06-05T09:15:14.766Z,8.00
2018-06-05T09:17:43.080Z,7.73
2018-06-05T09:20:11.372Z,7.53
2018-06-05T09:22:39.866Z,7.90
2018-06-05T09:25:08.171Z,7.37
2018-06-05T09:27:36.443Z,7.90
2018-06-05T09:30:04.767Z,7.90
2018-06-05T09:32:33.213Z,8.07
2018-06-05T09:35:01.515Z,7.33
2018-06-05T09:37:29.783Z,7.30
2018-06-05T09:39:58.113Z,7.20
2018-06-05T09:42:26.404Z,7.27
2018-06-05T09:44:54.678Z,7.53
2018-06-05T09:47:23.079Z,7.80
2018-06-05T09:49:51.352Z,8.03
2018-06-05T09:52:19.725Z,6.80
2018-06-05T09:54:48.045Z,8.03
2018-06-05T09:57:16.479Z,7.87
2018-06-05T09:59:44.778Z,7.60
2018-06-05T10:02:13.090Z,8.80
2018-06-05T10:04:41.463Z,7.13
2018-06-05T10:07:09.868Z,7.30
2018-06-05T10:09:38.159Z,7.30
2018-06-05T10:12:06.456Z,8.20
2018-06-05T10:14:34.854Z,8.30
2018-06-05T10:17:03.290Z,6.70
2018-06-05T10:19:31.591Z,7.60
2018-06-05T10:21:59.921Z,7.57
2018-06-05T10:24:28.243Z,7.60
2018-06-05T10:26:56.660Z,7.50
2018-06-05T10:29:24.979Z,8.13
2018-06-05T10:31:53.353Z,7.47
2018-06-05T10:34:21.652Z,7.40
2018-06-05T10:36:50.059Z,7.10
2018-06-05T10:39:18.373Z,7.47
2018-06-05T10:41:46.696Z,6.83
2018-06-05T10:44:15.045Z,7.17
2018-06-05T10:46:43.455Z,6.57
2018-06-05T10:49:11.757Z,6.90
2018-06-05T10:51:41.789Z,6.53
2018-06-05T10:54:10.063Z,6.83
2018-06-05T10:56:38.346Z,6.40
2018-06-05T10:59:06.625Z,7.37
2018-06-05T11:01:34.962Z,5.60
2018-06-05T11:04:03.282Z,6.47
2018-06-05T11:06:31.691Z,6.63
2018-06-05T11:08:59.956Z,6.47
2018-06-05T11:11:28.251Z,6.10
2018-06-05T11:13:56.518Z,6.10
2018-06-05T11:16:24.763Z,6.00
2018-06-05T11:18:53.076Z,6.40
2018-06-05T11:21:21.458Z,6.43
2018-06-05T11:23:49.767Z,6.60
2018-06-05T11:26:18.019Z,5.20
2018-06-05T11:28:46.287Z,4.97
2018-06-05T11:31:14.867Z,5.40
2018-06-05T11:33:43.191Z,5.20
2018-06-05T11:36:11.460Z,6.37
2018-06-05T11:38:39.868Z,6.10
2018-06-05T11:41:08.097Z,5.80
2018-06-05T11:43:36.678Z,6.13
2018-06-05T11:46:04.976Z,6.23
2018-06-05T11:48:33.270Z,6.70
2018-06-05T11:51:01.643Z,5.43
2018-06-05T11:53:30.003Z,6.73
2018-06-05T11:55:58.242Z,6.67
2018-06-05T11:58:26.538Z,6.60
2018-06-05T12:00:54.815Z,6.10
2018-06-05T12:03:23.096Z,6.50
2018-06-05T12:05:51.665Z,5.70
2018-06-05T12:08:19.924Z,5.73
2018-06-05T12:10:48.258Z,6.30
2018-06-05T12:13:16.513Z,5.83
2018-06-05T12:15:45.117Z,5.60
2018-06-05T12:18:13.401Z,6.30
2018-06-05T12:20:41.640Z,5.53
2018-06-05T12:23:09.939Z,5.50
2018-06-05T12:25:38.136Z,5.90
2018-06-05T12:28:06.762Z,5.90
2018-06-05T12:30:35.051Z,5.60
2018-06-05T12:33:03.315Z,5.77
2018-06-05T12:35:31.938Z,6.00
2018-06-05T12:38:00.360Z,6.37
2018-06-05T12:40:28.923Z,5.80
2018-06-05T12:42:57.580Z,5.70
2018-06-05T12:45:26.022Z,6.90
2018-06-05T12:47:54.529Z,5.90
2018-06-05T12:50:22.941Z,6.27
2018-06-05T12:52:51.200Z,5.60
2018-06-05T12:55:19.645Z,5.80
2018-06-05T12:57:48.236Z,6.97
2018-06-05T13:00:16.520Z,6.40
2018-06-05T13:02:45.128Z,6.00
2018-06-05T13:05:13.616Z,6.23
2018-06-05T13:07:41.983Z,6.93
2018-06-05T13:10:10.252Z,5.70
2018-06-05T13:12:38.485Z,6.90
2018-06-05T13:15:06.836Z,6.43
2018-06-05T13:17:35.126Z,6.30
2018-06-05T13:20:03.526Z,6.27
2018-06-05T13:22:31.751Z,5.40
2018-06-05T13:25:00.067Z,6.53
2018-06-05T13:27:28.623Z,6.33
2018-06-05T13:29:56.920Z,5.83
2018-06-05T13:32:25.184Z,6.87
2018-06-05T13:34:53.588Z,6.40
2018-06-05T13:37:21.815Z,5.63
2018-06-05T13:39:50.086Z,6.00
2018-06-05T13:42:18.438Z,5.90
2018-06-05T13:44:46.668Z,5.90
2018-06-05T13:47:14.939Z,6.00
2018-06-05T13:49:43.261Z,5.90
2018-06-05T13:52:11.491Z,6.07
2018-06-05T13:54:39.803Z,6.27
2018-06-05T13:57:08.361Z,6.27
2018-06-05T13:59:36.665Z,6.60
2018-06-05T14:02:04.937Z,5.70
2018-06-05T14:04:33.548Z,6.83
2018-06-05T14:07:01.932Z,6.73
2018-06-05T14:09:30.155Z,7.00
2018-06-05T14:11:58.452Z,6.23
2018-06-05T14:14:27.009Z,6.20
2018-06-05T14:16:55.293Z,7.00
2018-06-05T14:19:23.518Z,6.50
2018-06-05T14:21:52.055Z,7.00
2018-06-05T14:24:20.270Z,6.30
2018-06-05T14:26:48.537Z,7.17
2018-06-05T14:29:16.911Z,6.07
2018-06-05T14:31:45.274Z,6.50
2018-06-05T14:34:13.694Z,5.40
2018-06-05T14:36:41.950Z,5.77
2018-06-05T14:39:10.291Z,5.77
2018-06-05T14:41:38.918Z,5.90
2018-06-05T14:44:07.180Z,5.97
2018-06-05T14:46:35.421Z,6.53
2018-06-05T14:49:03.690Z,7.60
2018-06-05T14:51:31.962Z,5.93
2018-06-05T14:54:00.196Z,6.40
2018-06-05T14:56:28.858Z,6.10
2018-06-05T14:58:57.066Z,6.33
2018-06-05T15:01:25.355Z,5.77
2018-06-05T15:03:53.587Z,6.73
2018-06-05T15:06:22.194Z,6.73
2018-06-05T15:08:50.513Z,6.43
2018-06-05T15:11:18.936Z,5.87
2018-06-05T15:13:47.315Z,5.50
2018-06-05T15:16:15.590Z,5.23
2018-06-05T15:18:43.870Z,5.33
2018-06-05T15:21:12.154Z,5.87
2018-06-05T15:23:40.399Z,5.60
2018-06-05T15:26:08.997Z,6.23
2018-06-05T15:28:37.254Z,5.93
2018-06-05T15:31:05.493Z,5.77
2018-06-05T15:33:33.762Z,6.37
2018-06-05T15:36:02.495Z,6.60
2018-06-05T15:38:30.840Z,6.90
2018-06-05T15:40:59.189Z,6.60
2018-06-05T15:43:27.542Z,7.40
2018-06-05T15:45:56.106Z,5.90
2018-06-05T15:48:25.488Z,7.20
2018-06-05T15:50:54.076Z,6.37
2018-06-05T15:53:22.712Z,6.70
2018-06-05T15:55:51.297Z,6.40
2018-06-05T15:58:19.893Z,6.30
2018-06-05T16:00:48.537Z,8.17
2018-06-05T16:03:16.830Z,6.80
2018-06-05T16:05:45.155Z,6.63
2018-06-05T16:08:13.852Z,7.90
2018-06-05T16:10:42.943Z,7.90
2018-06-05T16:13:11.439Z,7.90
2018-06-05T16:15:40.059Z,8.53
2018-06-05T16:18:08.682Z,7.13
2018-06-05T16:20:37.299Z,7.37
2018-06-05T16:23:06.014Z,7.30
2018-06-05T16:25:34.647Z,7.07
2018-06-05T16:28:03.502Z,7.40
2018-06-05T16:30:32.186Z,7.30
2018-06-05T16:33:00.473Z,6.70
2018-06-05T16:35:29.052Z,6.77
2018-06-05T16:37:57.647Z,8.13
2018-06-05T16:40:26.661Z,7.87
2018-06-05T17:29:37.034Z,7.17
2018-06-05T17:32:05.665Z,7.90
2018-06-05T17:34:37.978Z,8.77
2018-06-05T17:37:06.660Z,7.73
2018-06-05T17:39:35.260Z,7.33
2018-06-05T17:42:03.935Z,7.77
2018-06-05T17:44:32.573Z,7.97
2018-06-05T17:47:01.147Z,7.43
2018-06-05T17:49:29.845Z,7.10
2018-06-05T17:51:58.426Z,7.00
2018-06-05T17:54:27.003Z,7.50
2018-06-05T17:56:55.600Z,7.17
2018-06-05T17:59:24.255Z,7.10
2018-06-05T18:01:52.887Z,7.63
2018-06-05T18:04:21.516Z,7.20
2018-06-05T18:06:50.115Z,8.83
2018-06-05T18:09:18.728Z,7.40
2018-06-05T18:11:47.281Z,7.57
2018-06-05T18:14:16.012Z,7.90
2018-06-05T18:16:44.549Z,7.27
2018-06-05T18:19:13.143Z,8.37
2018-06-05T18:21:41.681Z,7.07
2018-06-05T18:24:09.934Z,8.20
2018-06-05T18:26:38.711Z,7.27
2018-06-05T18:29:07.358Z,7.70
2018-06-05T18:31:35.946Z,7.00
2018-06-05T18:34:04.558Z,6.63
2018-06-05T18:36:33.198Z,7.27
2018-06-05T18:39:01.780Z,7.10
2018-06-05T18:41:30.437Z,6.70
2018-06-05T18:43:59.067Z,7.30
2018-06-05T18:46:27.715Z,6.50
2018-06-05T18:48:56.113Z,6.47
2018-06-05T18:51:24.717Z,7.47
2018-06-05T18:53:53.364Z,7.40
2018-06-05T18:56:22.830Z,6.70
2018-06-05T18:58:51.477Z,6.40
2018-06-05T19:01:20.096Z,7.33
2018-06-05T19:03:48.665Z,7.23
2018-06-05T19:06:17.233Z,6.97
2018-06-05T19:08:46.654Z,6.33
2018-06-05T19:11:15.378Z,7.60
2018-06-05T19:13:43.658Z,8.07
2018-06-05T19:16:12.313Z,7.00
2018-06-05T19:18:40.947Z,7.43
2018-06-05T19:21:09.550Z,7.40
2018-06-05T19:23:38.141Z,6.40
2018-06-05T19:26:06.816Z,6.57
2018-06-05T19:28:35.421Z,7.23
2018-06-05T19:31:04.105Z,6.70
2018-06-05T19:33:32.768Z,6.20
2018-06-05T19:36:01.440Z,6.83
2018-06-05T19:38:30.066Z,7.90
2018-06-05T19:40:58.760Z,7.47
2018-06-05T19:43:27.340Z,8.13
2018-06-05T19:45:56.002Z,7.57
2018-06-05T19:48:24.369Z,7.20
2018-06-05T19:50:52.750Z,7.53
2018-06-05T19:53:21.145Z,6.53
2018-06-05T19:55:49.547Z,8.00
2018-06-05T19:58:17.828Z,7.53
2018-06-05T20:00:46.360Z,7.57
2018-06-05T20:03:18.429Z,7.30
2018-06-05T20:05:46.905Z,7.63
2018-06-05T20:08:24.398Z,7.30
2018-06-05T20:10:54.369Z,7.60
2018-06-05T20:13:23.626Z,7.57
2018-06-05T20:15:53.522Z,7.00
2018-06-05T20:18:22.458Z,7.07
2018-06-05T20:20:51.219Z,7.73
2018-06-05T20:23:21.439Z,7.60
2018-06-05T20:25:50.641Z,8.17
2018-06-05T20:28:19.092Z,8.10
2018-06-05T20:30:56.818Z,7.23
2018-06-05T20:33:35.178Z,7.00
2018-06-05T20:38:52.279Z,8.47
2018-06-05T20:41:20.603Z,7.70
2018-06-05T20:43:48.963Z,7.63
2018-06-05T20:46:17.298Z,7.23
2018-06-05T20:48:46.153Z,8.10
2018-06-05T20:51:14.505Z,8.43
2018-06-05T20:53:42.889Z,7.67
2018-06-05T20:56:11.177Z,6.90
2018-06-05T20:58:39.519Z,8.77
2018-06-05T21:01:07.856Z,8.13
2018-06-05T21:03:36.151Z,9.03
2018-06-05T21:06:04.581Z,8.30
2018-06-05T21:08:32.935Z,9.60
2018-06-05T21:11:01.317Z,8.23
2018-06-05T21:13:29.696Z,7.53
2018-06-05T21:15:59.170Z,8.43
2018-06-05T21:18:27.800Z,8.80
2018-06-05T21:20:56.145Z,9.33
2018-06-05T21:23:24.719Z,8.70
2018-06-05T21:25:53.173Z,8.87
2018-06-05T21:28:21.961Z,8.33
2018-06-05T21:30:50.263Z,8.10
2018-06-05T21:33:18.682Z,9.70
2018-06-05T21:35:47.036Z,8.40
2018-06-05T21:38:15.421Z,8.97
2018-06-05T21:40:43.782Z,8.93
2018-06-05T21:43:12.483Z,9.30
2018-06-05T21:45:40.816Z,9.40
2018-06-05T21:48:09.229Z,9.47
2018-06-05T21:50:37.612Z,10.07
2018-06-05T21:53:05.964Z,10.20
2018-06-05T21:55:35.032Z,9.80
2018-06-05T21:58:03.391Z,10.97
2018-06-05T22:00:32.134Z,9.97
2018-06-05T22:03:01.248Z,9.93
2018-06-05T22:05:29.833Z,9.80
2018-06-05T22:07:58.212Z,9.90
2018-06-05T22:10:26.583Z,9.97
2018-06-05T22:12:54.861Z,12.20
2018-06-05T22:15:23.274Z,10.77
2018-06-05T22:17:51.656Z,10.07
2018-06-05T22:20:20.148Z,12.17
2018-06-05T22:22:48.526Z,11.37
2018-06-05T22:25:16.983Z,11.90
2018-06-05T22:27:45.368Z,11.30
2018-06-05T22:30:13.888Z,11.30
2018-06-05T22:32:42.261Z,12.47
2018-06-05T22:35:10.634Z,11.53
2018-06-05T22:37:39.304Z,12.03
2018-06-05T22:40:12.209Z,11.40
2018-06-05T22:42:40.610Z,12.67
2018-06-05T22:45:08.997Z,13.60
2018-06-05T22:47:37.387Z,12.80
2018-06-05T22:50:06.272Z,12.30
2018-06-05T22:52:34.752Z,11.97
2018-06-05T22:55:03.159Z,12.90
2018-06-05T22:57:31.527Z,13.80
2018-06-05T22:59:59.900Z,12.90
2018-06-05T23:02:28.251Z,12.60
2018-06-05T23:04:56.663Z,12.97
2018-06-05T23:07:25.049Z,13.27
2018-06-05T23:09:53.426Z,11.87
2018-06-05T23:12:21.838Z,13.47
2018-06-05T23:14:50.246Z,12.43
2018-06-05T23:17:18.637Z,12.50
2018-06-05T23:19:47.205Z,13.00
2018-06-05T23:22:15.580Z,14.27
2018-06-05T23:24:44.015Z,12.90
2018-06-05T23:27:12.455Z,13.70
2018-06-05T23:29:40.906Z,14.53
2018-06-05T23:32:10.731Z,13.67
2018-06-05T23:34:39.492Z,12.90
2018-06-05T23:37:07.841Z,12.33
2018-06-05T23:39:36.298Z,13.23
2018-06-05T23:42:05.363Z,13.30
2018-06-05T23:44:33.762Z,13.07
2018-06-05T23:47:02.103Z,13.47
2018-06-05T23:49:30.593Z,12.73
2018-06-05T23:51:59.383Z,13.67
2018-06-05T23:54:27.868Z,14.50
2018-06-05T23:56:56.705Z,13.00
2018-06-05T23:59:25.167Z,13.97
